createdAt,value
2023-04-23T00:24:58.643Z,7.98
2023-04-23T00:28:30.504Z,7.98
2023-04-23T00:31:59.981Z,8.04
2023-04-23T00:47:12.365Z,7.95
2023-04-23T00:50:41.850Z,8.03
2023-04-23T00:54:23.106Z,8.14
2023-04-23T00:58:04.064Z,8.18
2023-04-23T01:56:07.257Z,7.89
2023-04-23T01:59:35.390Z,7.81
2023-04-23T02:03:16.685Z,7.73
2023-04-23T02:06:58.181Z,7.56
2023-04-23T02:25:45.435Z,6.88
2023-04-23T02:29:17.198Z,6.81
2023-04-23T02:32:46.481Z,6.87
2023-04-23T02:36:16.143Z,6.91
2023-04-23T02:39:45.135Z,6.96
2023-04-23T02:43:13.145Z,7.04
2023-04-23T03:12:22.822Z,7.78
2023-04-23T03:16:04.504Z,7.73
2023-04-23T03:19:18.545Z,7.66
2023-04-23T03:22:51.015Z,7.58
2023-04-23T03:41:24.466Z,7.49
2023-04-23T03:45:11.643Z,7.46
2023-04-23T03:48:09.828Z,7.43
2023-04-23T03:51:53.272Z,7.39
2023-04-23T03:55:22.481Z,7.39
2023-04-23T03:58:57.621Z,7.42
2023-04-23T04:02:15.846Z,7.52
2023-04-23T04:09:33.001Z,7.72
2023-04-23T04:31:16.403Z,8.27
2023-04-23T04:34:46.718Z,8.46
2023-04-23T04:38:16.265Z,8.63
2023-04-23T04:41:45.381Z,8.77
2023-04-23T04:45:20.834Z,8.90
2023-04-23T04:48:54.112Z,9.04
2023-04-23T04:52:34.674Z,9.19
2023-04-23T05:10:59.942Z,10.75
2023-04-23T05:14:35.643Z,11.22
2023-04-23T05:18:14.620Z,11.42
2023-04-23T05:21:53.694Z,11.53
2023-04-23T05:25:25.978Z,11.74
2023-04-23T05:54:11.268Z,15.31
2023-04-23T05:57:47.298Z,15.85
2023-04-23T06:01:28.344Z,16.37
2023-04-23T06:05:16.196Z,16.91
2023-04-23T06:27:46.665Z,20.12
2023-04-23T06:31:18.829Z,20.55
2023-04-23T06:38:48.452Z,21.87
2023-04-23T06:42:25.669Z,22.29
2023-04-23T06:45:59.379Z,22.66
2023-04-23T06:49:28.111Z,22.72
2023-04-23T07:17:33.444Z,26.73
2023-04-23T07:20:22.902Z,26.91
2023-04-23T07:23:09.949Z,27.01
2023-04-23T07:25:38.819Z,27.40
2023-04-23T07:28:35.316Z,27.86
2023-04-23T07:31:18.879Z,28.20
2023-04-23T07:33:59.885Z,28.41
2023-04-23T07:36:37.485Z,28.31
2023-04-23T07:39:15.019Z,28.41
2023-04-23T07:41:48.270Z,28.74
2023-04-23T07:44:22.818Z,29.33
2023-04-23T07:46:51.845Z,29.66
2023-04-23T07:49:25.749Z,30.01
2023-04-23T07:52:01.686Z,30.63
2023-04-23T07:54:30.117Z,31.13
2023-04-23T07:56:59.090Z,31.15
2023-04-23T07:59:27.705Z,31.04
2023-04-23T08:01:56.270Z,31.18
2023-04-23T08:04:25.185Z,31.60
2023-04-23T08:06:54.660Z,32.14
2023-04-23T08:09:23.927Z,32.61
2023-04-23T11:24:43.592Z,36.33
2023-04-23T14:52:30.688Z,19.51
2023-04-23T14:55:59.434Z,19.24
2023-04-23T14:59:29.280Z,19.03
2023-04-23T15:02:59.496Z,18.83
2023-04-23T15:06:33.747Z,18.68
2023-04-23T15:13:30.353Z,18.73
2023-04-23T15:31:38.216Z,18.92
2023-04-23T15:35:07.968Z,18.65
2023-04-23T15:38:37.058Z,18.44
2023-04-23T15:42:12.070Z,18.22
2023-04-23T15:45:43.370Z,17.99
2023-04-23T15:49:21.334Z,17.86
2023-04-23T15:56:27.964Z,17.76
2023-04-23T16:26:01.223Z,15.83
2023-04-23T16:29:32.765Z,15.75
2023-04-23T16:51:45.593Z,15.56
2023-04-23T17:28:32.189Z,15.39
2023-04-23T17:32:05.981Z,15.37
2023-04-23T17:35:43.098Z,15.30
2023-04-23T17:39:21.752Z,15.21
2023-04-23T17:54:17.559Z,15.17
2023-04-23T18:01:54.874Z,15.09
2023-04-23T18:05:29.545Z,15.01
2023-04-23T18:08:44.443Z,14.92
2023-04-23T18:30:39.089Z,14.21
2023-04-23T18:34:29.526Z,13.96
2023-04-23T18:37:58.089Z,13.81
2023-04-23T18:41:31.661Z,13.77
2023-04-23T18:45:16.190Z,13.81
2023-04-23T18:48:46.887Z,13.86
2023-04-23T18:52:19.648Z,13.71
2023-04-23T19:19:01.996Z,13.32
2023-04-23T19:22:49.886Z,13.28
2023-04-23T19:30:36.943Z,13.47
2023-04-23T19:38:16.423Z,13.49
2023-04-23T20:08:00.676Z,13.64
2023-04-23T20:11:34.587Z,13.56
2023-04-23T20:15:16.157Z,13.53
2023-04-23T20:37:57.690Z,13.68
2023-04-23T20:57:37.633Z,13.57
2023-04-23T21:01:16.431Z,13.55
2023-04-23T21:04:49.627Z,13.48
2023-04-23T21:30:17.238Z,13.35
2023-04-23T21:33:46.978Z,13.27
2023-04-23T21:37:17.618Z,13.13
2023-04-23T21:40:50.223Z,12.98
2023-04-23T21:44:28.923Z,12.85
2023-04-23T21:59:10.522Z,12.65
2023-04-23T22:02:44.650Z,12.48
2023-04-23T22:06:36.711Z,12.36
2023-04-23T22:10:34.546Z,12.42
2023-04-23T22:14:07.944Z,12.49
2023-04-23T22:17:50.802Z,12.42
2023-04-23T22:37:12.413Z,12.25
2023-04-23T22:40:44.777Z,12.04
2023-04-23T22:44:21.770Z,11.88
2023-04-23T23:10:01.216Z,11.26
2023-04-23T23:13:34.068Z,11.15
2023-04-23T23:21:09.260Z,11.11
2023-04-23T23:24:41.686Z,11.10
2023-04-23T23:32:23.619Z,11.22
2023-04-23T23:35:40.484Z,11.25
